LFML/MRS METAR and TAF weather

Enter ICAO airport designator
Station Type Date Time Source
LFML METAR 2019/04/19 08:00 UTC NOAA

LFML 190800Z AUTO 07013KT CAVOK 20/05 Q1024 TEMPO 12015G25KT


Station Type Date Time Source
LFML Decoded METAR 2019/04/19 08:00 UTC NOAA

Marseille / Marignane, France (LFML) 43-27N 005-14E 36M
Apr 19, 2019 - 04:00 AM EDT / 2019.04.19 0800 UTC
Wind: from the ENE (070 degrees) at 15 MPH (13 KT):0
Visibility: greater than 7 mile(s):0
Temperature: 68 F (20 C)
Dew Point: 41 F (5 C)
Relative Humidity: 37%
Pressure (altimeter): 30.24 in. Hg (1024 hPa)
ob: LFML 190800Z AUTO 07013KT CAVOK 20/05 Q1024 TEMPO 12015G25KT
cycle: 8

Station Type Date Time Source
LFML TAF 2019/04/19 09:24 UTC NOAA

TAF TAF LFML 190800Z 1909/2015 11015KT CAVOK TX24/2012Z TN11/2003Z
BECMG 1918/1919 VRB05KT
BECMG 2000/2001 09012KT
BECMG 2013/2014 14012KT

Example: see airport list